sensor_id;sensor_type;location;lat;lon;timestamp;P1;durP1;ratioP1;P2;durP2;ratioP2
11735;SDS011;5924;51.398;7.088;2022-09-16T00:00:13;4.90;;;1.27;;
11735;SDS011;5924;51.398;7.088;2022-09-16T00:02:39;1.40;;;1.30;;
11735;SDS011;5924;51.398;7.088;2022-09-16T00:05:06;1.90;;;1.10;;
11735;SDS011;5924;51.398;7.088;2022-09-16T00:07:32;4.63;;;1.27;;
11735;SDS011;5924;51.398;7.088;2022-09-16T00:09:58;2.70;;;1.10;;
11735;SDS011;5924;51.398;7.088;2022-09-16T00:12:24;1.40;;;0.90;;
11735;SDS011;5924;51.398;7.088;2022-09-16T00:14:53;4.73;;;1.50;;
11735;SDS011;5924;51.398;7.088;2022-09-16T00:17:19;3.67;;;1.30;;
11735;SDS011;5924;51.398;7.088;2022-09-16T00:19:45;0.80;;;0.80;;
11735;SDS011;5924;51.398;7.088;2022-09-16T00:22:11;10.67;;;1.37;;
11735;SDS011;5924;51.398;7.088;2022-09-16T00:24:37;2.70;;;1.13;;
11735;SDS011;5924;51.398;7.088;2022-09-16T00:27:03;5.37;;;1.20;;
11735;SDS011;5924;51.398;7.088;2022-09-16T00:29:28;3.33;;;1.30;;
11735;SDS011;5924;51.398;7.088;2022-09-16T00:31:54;1.33;;;1.10;;
11735;SDS011;5924;51.398;7.088;2022-09-16T00:34:20;1.67;;;1.03;;
11735;SDS011;5924;51.398;7.088;2022-09-16T00:36:45;2.57;;;1.17;;
11735;SDS011;5924;51.398;7.088;2022-09-16T00:39:11;2.30;;;1.00;;
11735;SDS011;5924;51.398;7.088;2022-09-16T00:41:38;2.80;;;1.20;;
11735;SDS011;5924;51.398;7.088;2022-09-16T00:44:05;1.70;;;1.07;;
11735;SDS011;5924;51.398;7.088;2022-09-16T00:46:50;1.33;;;0.97;;
11735;SDS011;5924;51.398;7.088;2022-09-16T00:49:17;6.00;;;1.50;;
11735;SDS011;5924;51.398;7.088;2022-09-16T00:51:50;9.00;;;1.30;;
11735;SDS011;5924;51.398;7.088;2022-09-16T00:54:20;6.63;;;1.20;;
11735;SDS011;5924;51.398;7.088;2022-09-16T00:56:47;5.43;;;1.27;;
11735;SDS011;5924;51.398;7.088;2022-09-16T00:59:20;3.43;;;1.50;;
11735;SDS011;5924;51.398;7.088;2022-09-16T01:01:50;4.73;;;1.40;;
11735;SDS011;5924;51.398;7.088;2022-09-16T01:04:18;5.33;;;1.30;;
11735;SDS011;5924;51.398;7.088;2022-09-16T01:06:53;4.43;;;1.20;;
11735;SDS011;5924;51.398;7.088;2022-09-16T01:09:20;5.93;;;1.43;;
11735;SDS011;5924;51.398;7.088;2022-09-16T01:11:47;2.37;;;1.43;;
11735;SDS011;5924;51.398;7.088;2022-09-16T01:14:13;1.83;;;1.17;;
11735;SDS011;5924;51.398;7.088;2022-09-16T01:19:42;3.57;;;1.70;;
11735;SDS011;5924;51.398;7.088;2022-09-16T01:33:32;2.83;;;1.50;;
11735;SDS011;5924;51.398;7.088;2022-09-16T01:36:17;4.00;;;1.40;;
11735;SDS011;5924;51.398;7.088;2022-09-16T01:39:48;4.20;;;1.60;;
11735;SDS011;5924;51.398;7.088;2022-09-16T01:44:23;7.20;;;2.67;;
11735;SDS011;5924;51.398;7.088;2022-09-16T01:49:55;3.03;;;1.50;;
11735;SDS011;5924;51.398;7.088;2022-09-16T01:52:24;6.57;;;2.23;;
11735;SDS011;5924;51.398;7.088;2022-09-16T01:55:00;3.23;;;1.57;;
11735;SDS011;5924;51.398;7.088;2022-09-16T01:57:34;1.67;;;1.13;;
11735;SDS011;5924;51.398;7.088;2022-09-16T02:00:09;4.70;;;1.47;;
11735;SDS011;5924;51.398;7.088;2022-09-16T02:05:38;4.20;;;1.63;;
11735;SDS011;5924;51.398;7.088;2022-09-16T02:08:11;4.40;;;1.53;;
11735;SDS011;5924;51.398;7.088;2022-09-16T02:10:43;3.30;;;1.40;;
11735;SDS011;5924;51.398;7.088;2022-09-16T02:13:15;6.13;;;1.50;;
11735;SDS011;5924;51.398;7.088;2022-09-16T02:15:52;2.20;;;1.50;;
11735;SDS011;5924;51.398;7.088;2022-09-16T02:18:24;2.10;;;1.13;;
11735;SDS011;5924;51.398;7.088;2022-09-16T02:20:54;3.93;;;1.40;;
11735;SDS011;5924;51.398;7.088;2022-09-16T02:23:22;3.33;;;1.80;;
11735;SDS011;5924;51.398;7.088;2022-09-16T02:25:51;3.47;;;1.40;;
11735;SDS011;5924;51.398;7.088;2022-09-16T02:28:29;1.87;;;1.13;;
11735;SDS011;5924;51.398;7.088;2022-09-16T02:30:58;5.63;;;1.57;;
11735;SDS011;5924;51.398;7.088;2022-09-16T02:33:32;6.33;;;1.53;;
11735;SDS011;5924;51.398;7.088;2022-09-16T02:36:04;3.90;;;1.67;;
11735;SDS011;5924;51.398;7.088;2022-09-16T02:38:33;1.53;;;1.27;;
11735;SDS011;5924;51.398;7.088;2022-09-16T02:41:04;3.77;;;1.63;;
11735;SDS011;5924;51.398;7.088;2022-09-16T02:43:31;2.33;;;1.60;;
11735;SDS011;5924;51.398;7.088;2022-09-16T02:56:54;4.60;;;1.37;;
11735;SDS011;5924;51.398;7.088;2022-09-16T02:59:20;4.63;;;1.43;;
11735;SDS011;5924;51.398;7.088;2022-09-16T03:01:47;1.83;;;1.07;;
11735;SDS011;5924;51.398;7.088;2022-09-16T03:04:14;3.70;;;1.43;;
11735;SDS011;5924;51.398;7.088;2022-09-16T03:06:41;3.43;;;1.40;;
11735;SDS011;5924;51.398;7.088;2022-09-16T03:09:08;11.40;;;1.60;;
11735;SDS011;5924;51.398;7.088;2022-09-16T03:11:39;8.60;;;1.37;;
11735;SDS011;5924;51.398;7.088;2022-09-16T03:23:18;2.13;;;1.40;;
11735;SDS011;5924;51.398;7.088;2022-09-16T03:26:07;3.93;;;1.30;;
11735;SDS011;5924;51.398;7.088;2022-09-16T03:32:05;2.10;;;1.60;;
11735;SDS011;5924;51.398;7.088;2022-09-16T03:34:36;4.17;;;1.30;;
11735;SDS011;5924;51.398;7.088;2022-09-16T03:37:08;2.43;;;1.30;;
11735;SDS011;5924;51.398;7.088;2022-09-16T03:39:36;2.20;;;1.60;;
11735;SDS011;5924;51.398;7.088;2022-09-16T03:42:04;2.00;;;1.60;;
11735;SDS011;5924;51.398;7.088;2022-09-16T03:44:38;1.67;;;1.57;;
11735;SDS011;5924;51.398;7.088;2022-09-16T03:47:05;4.20;;;2.00;;
11735;SDS011;5924;51.398;7.088;2022-09-16T03:49:32;6.57;;;1.40;;
11735;SDS011;5924;51.398;7.088;2022-09-16T03:51:58;4.27;;;1.63;;
11735;SDS011;5924;51.398;7.088;2022-09-16T03:54:24;3.50;;;1.70;;
11735;SDS011;5924;51.398;7.088;2022-09-16T03:56:50;2.40;;;1.30;;
11735;SDS011;5924;51.398;7.088;2022-09-16T03:59:15;2.60;;;1.40;;
11735;SDS011;5924;51.398;7.088;2022-09-16T04:01:41;5.53;;;1.60;;
11735;SDS011;5924;51.398;7.088;2022-09-16T04:04:08;3.40;;;1.33;;
11735;SDS011;5924;51.398;7.088;2022-09-16T04:06:33;2.13;;;1.63;;
11735;SDS011;5924;51.398;7.088;2022-09-16T04:09:03;3.33;;;1.67;;
11735;SDS011;5924;51.398;7.088;2022-09-16T04:11:31;6.13;;;2.60;;
11735;SDS011;5924;51.398;7.088;2022-09-16T04:13:57;4.47;;;1.50;;
11735;SDS011;5924;51.398;7.088;2022-09-16T04:16:23;3.27;;;1.47;;
11735;SDS011;5924;51.398;7.088;2022-09-16T04:18:49;4.67;;;1.63;;
11735;SDS011;5924;51.398;7.088;2022-09-16T04:21:15;2.40;;;1.77;;
11735;SDS011;5924;51.398;7.088;2022-09-16T04:23:41;6.83;;;2.17;;
11735;SDS011;5924;51.398;7.088;2022-09-16T04:26:08;2.80;;;2.03;;
11735;SDS011;5924;51.398;7.088;2022-09-16T04:28:35;3.20;;;2.50;;
11735;SDS011;5924;51.398;7.088;2022-09-16T04:31:01;7.03;;;1.70;;
11735;SDS011;5924;51.398;7.088;2022-09-16T04:33:32;8.27;;;2.00;;
11735;SDS011;5924;51.398;7.088;2022-09-16T04:36:06;11.03;;;1.50;;
11735;SDS011;5924;51.398;7.088;2022-09-16T04:38:42;4.17;;;1.50;;
11735;SDS011;5924;51.398;7.088;2022-09-16T04:41:09;3.53;;;1.50;;
11735;SDS011;5924;51.398;7.088;2022-09-16T04:43:35;3.57;;;1.80;;
11735;SDS011;5924;51.398;7.088;2022-09-16T04:46:01;8.13;;;1.40;;
11735;SDS011;5924;51.398;7.088;2022-09-16T04:48:27;5.00;;;1.70;;
11735;SDS011;5924;51.398;7.088;2022-09-16T04:50:54;4.30;;;1.70;;
11735;SDS011;5924;51.398;7.088;2022-09-16T04:53:27;7.53;;;1.90;;
11735;SDS011;5924;51.398;7.088;2022-09-16T04:55:52;2.10;;;1.43;;
11735;SDS011;5924;51.398;7.088;2022-09-16T04:58:18;1.83;;;1.43;;
11735;SDS011;5924;51.398;7.088;2022-09-16T05:00:43;2.10;;;1.97;;
11735;SDS011;5924;51.398;7.088;2022-09-16T05:03:09;5.17;;;1.53;;
11735;SDS011;5924;51.398;7.088;2022-09-16T05:05:35;4.50;;;1.70;;
11735;SDS011;5924;51.398;7.088;2022-09-16T05:08:00;7.00;;;1.90;;
11735;SDS011;5924;51.398;7.088;2022-09-16T05:10:26;5.27;;;1.77;;
11735;SDS011;5924;51.398;7.088;2022-09-16T05:12:52;4.57;;;1.70;;
11735;SDS011;5924;51.398;7.088;2022-09-16T05:15:19;3.57;;;1.97;;
11735;SDS011;5924;51.398;7.088;2022-09-16T05:17:45;4.90;;;2.10;;
11735;SDS011;5924;51.398;7.088;2022-09-16T05:20:11;2.30;;;2.10;;
11735;SDS011;5924;51.398;7.088;2022-09-16T05:22:38;7.17;;;2.20;;
11735;SDS011;5924;51.398;7.088;2022-09-16T05:25:04;7.53;;;2.47;;
11735;SDS011;5924;51.398;7.088;2022-09-16T05:27:30;2.10;;;1.90;;
11735;SDS011;5924;51.398;7.088;2022-09-16T05:29:56;3.30;;;2.10;;
11735;SDS011;5924;51.398;7.088;2022-09-16T05:32:22;2.47;;;2.27;;
11735;SDS011;5924;51.398;7.088;2022-09-16T05:34:48;5.50;;;2.17;;
11735;SDS011;5924;51.398;7.088;2022-09-16T05:37:14;4.70;;;2.13;;
11735;SDS011;5924;51.398;7.088;2022-09-16T05:39:41;4.13;;;1.90;;
11735;SDS011;5924;51.398;7.088;2022-09-16T05:42:07;6.10;;;2.00;;
11735;SDS011;5924;51.398;7.088;2022-09-16T05:44:34;1.97;;;1.60;;
11735;SDS011;5924;51.398;7.088;2022-09-16T05:46:59;1.60;;;1.50;;
11735;SDS011;5924;51.398;7.088;2022-09-16T05:49:25;6.47;;;2.10;;
11735;SDS011;5924;51.398;7.088;2022-09-16T05:51:51;2.70;;;1.80;;
11735;SDS011;5924;51.398;7.088;2022-09-16T05:54:17;4.90;;;2.13;;
11735;SDS011;5924;51.398;7.088;2022-09-16T05:56:44;8.90;;;1.70;;
11735;SDS011;5924;51.398;7.088;2022-09-16T05:59:11;7.70;;;1.87;;
11735;SDS011;5924;51.398;7.088;2022-09-16T06:01:37;4.03;;;1.60;;
11735;SDS011;5924;51.398;7.088;2022-09-16T06:04:04;5.80;;;1.77;;
11735;SDS011;5924;51.398;7.088;2022-09-16T06:06:37;2.47;;;2.10;;
11735;SDS011;5924;51.398;7.088;2022-09-16T06:09:20;3.43;;;2.43;;
11735;SDS011;5924;51.398;7.088;2022-09-16T06:11:49;6.30;;;2.00;;
11735;SDS011;5924;51.398;7.088;2022-09-16T06:14:17;8.63;;;2.73;;
11735;SDS011;5924;51.398;7.088;2022-09-16T06:16:43;4.90;;;2.00;;
11735;SDS011;5924;51.398;7.088;2022-09-16T06:19:10;4.60;;;2.37;;
11735;SDS011;5924;51.398;7.088;2022-09-16T06:21:38;5.00;;;2.60;;
11735;SDS011;5924;51.398;7.088;2022-09-16T06:24:04;7.57;;;2.30;;
11735;SDS011;5924;51.398;7.088;2022-09-16T06:26:33;2.50;;;2.03;;
11735;SDS011;5924;51.398;7.088;2022-09-16T06:28:59;7.50;;;2.93;;
11735;SDS011;5924;51.398;7.088;2022-09-16T06:31:25;5.57;;;2.53;;
11735;SDS011;5924;51.398;7.088;2022-09-16T06:33:52;4.83;;;2.67;;
11735;SDS011;5924;51.398;7.088;2022-09-16T06:36:19;7.23;;;3.00;;
11735;SDS011;5924;51.398;7.088;2022-09-16T06:38:46;10.67;;;3.07;;
11735;SDS011;5924;51.398;7.088;2022-09-16T06:41:13;10.93;;;2.67;;
11735;SDS011;5924;51.398;7.088;2022-09-16T06:43:40;10.03;;;3.40;;
11735;SDS011;5924;51.398;7.088;2022-09-16T06:46:07;11.30;;;3.37;;
11735;SDS011;5924;51.398;7.088;2022-09-16T06:48:37;6.53;;;3.53;;
11735;SDS011;5924;51.398;7.088;2022-09-16T06:51:06;17.90;;;3.03;;
11735;SDS011;5924;51.398;7.088;2022-09-16T06:53:35;9.37;;;3.13;;
11735;SDS011;5924;51.398;7.088;2022-09-16T06:56:05;4.63;;;3.30;;
11735;SDS011;5924;51.398;7.088;2022-09-16T06:58:35;8.63;;;3.80;;
11735;SDS011;5924;51.398;7.088;2022-09-16T07:01:05;8.13;;;4.13;;
11735;SDS011;5924;51.398;7.088;2022-09-16T07:03:32;13.33;;;4.13;;
11735;SDS011;5924;51.398;7.088;2022-09-16T07:05:58;7.57;;;4.00;;
11735;SDS011;5924;51.398;7.088;2022-09-16T07:08:28;4.67;;;3.67;;
11735;SDS011;5924;51.398;7.088;2022-09-16T07:11:00;12.17;;;3.57;;
11735;SDS011;5924;51.398;7.088;2022-09-16T07:13:27;5.90;;;2.90;;
11735;SDS011;5924;51.398;7.088;2022-09-16T07:15:53;7.07;;;3.30;;
11735;SDS011;5924;51.398;7.088;2022-09-16T07:18:22;13.10;;;3.10;;
11735;SDS011;5924;51.398;7.088;2022-09-16T07:20:48;10.60;;;3.10;;
11735;SDS011;5924;51.398;7.088;2022-09-16T07:23:13;3.50;;;2.87;;
11735;SDS011;5924;51.398;7.088;2022-09-16T07:25:39;4.63;;;2.80;;
11735;SDS011;5924;51.398;7.088;2022-09-16T07:28:05;6.60;;;3.57;;
11735;SDS011;5924;51.398;7.088;2022-09-16T07:30:30;13.60;;;3.20;;
11735;SDS011;5924;51.398;7.088;2022-09-16T07:32:58;7.07;;;3.20;;
11735;SDS011;5924;51.398;7.088;2022-09-16T07:35:24;4.23;;;2.80;;
11735;SDS011;5924;51.398;7.088;2022-09-16T07:37:50;3.03;;;2.60;;
11735;SDS011;5924;51.398;7.088;2022-09-16T07:40:15;4.13;;;2.80;;
11735;SDS011;5924;51.398;7.088;2022-09-16T07:42:41;3.70;;;2.10;;
11735;SDS011;5924;51.398;7.088;2022-09-16T07:45:07;7.53;;;4.33;;
11735;SDS011;5924;51.398;7.088;2022-09-16T07:47:33;3.33;;;2.33;;
11735;SDS011;5924;51.398;7.088;2022-09-16T07:49:59;4.53;;;2.63;;
11735;SDS011;5924;51.398;7.088;2022-09-16T07:52:25;12.63;;;2.60;;
11735;SDS011;5924;51.398;7.088;2022-09-16T07:54:56;3.87;;;2.60;;
11735;SDS011;5924;51.398;7.088;2022-09-16T07:57:22;4.87;;;2.10;;
11735;SDS011;5924;51.398;7.088;2022-09-16T07:59:48;3.90;;;2.73;;
11735;SDS011;5924;51.398;7.088;2022-09-16T08:02:14;8.13;;;2.77;;
11735;SDS011;5924;51.398;7.088;2022-09-16T08:04:40;2.70;;;2.20;;
11735;SDS011;5924;51.398;7.088;2022-09-16T08:07:06;5.00;;;2.30;;
11735;SDS011;5924;51.398;7.088;2022-09-16T08:09:32;5.93;;;2.37;;
11735;SDS011;5924;51.398;7.088;2022-09-16T08:11:58;3.27;;;2.57;;
11735;SDS011;5924;51.398;7.088;2022-09-16T08:14:27;4.63;;;3.40;;
11735;SDS011;5924;51.398;7.088;2022-09-16T08:16:52;3.40;;;3.13;;
11735;SDS011;5924;51.398;7.088;2022-09-16T08:19:18;5.87;;;4.27;;
11735;SDS011;5924;51.398;7.088;2022-09-16T08:21:47;6.40;;;4.30;;
11735;SDS011;5924;51.398;7.088;2022-09-16T08:24:12;7.70;;;4.90;;
11735;SDS011;5924;51.398;7.088;2022-09-16T08:26:38;6.60;;;4.47;;
11735;SDS011;5924;51.398;7.088;2022-09-16T08:29:04;16.27;;;5.60;;
11735;SDS011;5924;51.398;7.088;2022-09-16T08:31:31;11.13;;;4.90;;
11735;SDS011;5924;51.398;7.088;2022-09-16T08:33:57;4.90;;;4.53;;
11735;SDS011;5924;51.398;7.088;2022-09-16T08:36:23;6.47;;;4.00;;
11735;SDS011;5924;51.398;7.088;2022-09-16T08:38:51;5.13;;;4.10;;
11735;SDS011;5924;51.398;7.088;2022-09-16T08:47:00;6.47;;;4.60;;
11735;SDS011;5924;51.398;7.088;2022-09-16T08:49:43;9.63;;;4.60;;
11735;SDS011;5924;51.398;7.088;2022-09-16T08:52:12;5.80;;;5.30;;
11735;SDS011;5924;51.398;7.088;2022-09-16T08:55:04;5.97;;;5.50;;
11735;SDS011;5924;51.398;7.088;2022-09-16T08:57:35;13.97;;;5.70;;
11735;SDS011;5924;51.398;7.088;2022-09-16T09:00:15;6.10;;;5.33;;
11735;SDS011;5924;51.398;7.088;2022-09-16T09:02:50;5.50;;;4.97;;
11735;SDS011;5924;51.398;7.088;2022-09-16T09:05:24;7.00;;;4.03;;
11735;SDS011;5924;51.398;7.088;2022-09-16T09:08:17;8.57;;;4.43;;
11735;SDS011;5924;51.398;7.088;2022-09-16T09:10:50;3.37;;;3.17;;
11735;SDS011;5924;51.398;7.088;2022-09-16T09:13:31;3.70;;;3.50;;
11735;SDS011;5924;51.398;7.088;2022-09-16T09:26:31;5.30;;;3.00;;
11735;SDS011;5924;51.398;7.088;2022-09-16T09:32:10;6.30;;;2.40;;
11735;SDS011;5924;51.398;7.088;2022-09-16T09:48:36;2.63;;;2.13;;
11735;SDS011;5924;51.398;7.088;2022-09-16T09:51:12;4.80;;;2.53;;
11735;SDS011;5924;51.398;7.088;2022-09-16T09:56:49;2.43;;;1.93;;
11735;SDS011;5924;51.398;7.088;2022-09-16T10:01:57;3.17;;;2.13;;
11735;SDS011;5924;51.398;7.088;2022-09-16T10:04:25;1.93;;;1.80;;
11735;SDS011;5924;51.398;7.088;2022-09-16T10:06:53;2.30;;;1.70;;
11735;SDS011;5924;51.398;7.088;2022-09-16T10:09:21;4.00;;;1.63;;
11735;SDS011;5924;51.398;7.088;2022-09-16T10:14:30;3.13;;;1.13;;
11735;SDS011;5924;51.398;7.088;2022-09-16T10:17:03;3.90;;;1.07;;
11735;SDS011;5924;51.398;7.088;2022-09-16T10:19:32;2.20;;;1.23;;
11735;SDS011;5924;51.398;7.088;2022-09-16T10:22:31;4.47;;;1.03;;
11735;SDS011;5924;51.398;7.088;2022-09-16T10:24:59;3.43;;;0.93;;
11735;SDS011;5924;51.398;7.088;2022-09-16T10:27:28;3.87;;;1.10;;
11735;SDS011;5924;51.398;7.088;2022-09-16T10:30:09;1.30;;;1.13;;
11735;SDS011;5924;51.398;7.088;2022-09-16T10:32:44;2.30;;;0.80;;
11735;SDS011;5924;51.398;7.088;2022-09-16T10:35:14;2.93;;;1.20;;
11735;SDS011;5924;51.398;7.088;2022-09-16T10:37:48;2.73;;;1.23;;
11735;SDS011;5924;51.398;7.088;2022-09-16T10:40:22;2.23;;;1.10;;
11735;SDS011;5924;51.398;7.088;2022-09-16T10:42:49;1.23;;;1.13;;
11735;SDS011;5924;51.398;7.088;2022-09-16T10:47:46;2.50;;;0.90;;
11735;SDS011;5924;51.398;7.088;2022-09-16T10:50:15;3.90;;;0.70;;
11735;SDS011;5924;51.398;7.088;2022-09-16T10:52:43;1.80;;;0.70;;
11735;SDS011;5924;51.398;7.088;2022-09-16T10:58:05;1.77;;;1.07;;
11735;SDS011;5924;51.398;7.088;2022-09-16T11:00:50;3.17;;;1.27;;
11735;SDS011;5924;51.398;7.088;2022-09-16T11:06:23;2.37;;;0.60;;
11735;SDS011;5924;51.398;7.088;2022-09-16T11:14:45;1.23;;;0.60;;
11735;SDS011;5924;51.398;7.088;2022-09-16T11:30:59;2.60;;;1.00;;
11735;SDS011;5924;51.398;7.088;2022-09-16T11:33:54;3.30;;;1.30;;
11735;SDS011;5924;51.398;7.088;2022-09-16T11:36:54;3.53;;;0.97;;
11735;SDS011;5924;51.398;7.088;2022-09-16T11:42:23;3.07;;;0.73;;
11735;SDS011;5924;51.398;7.088;2022-09-16T11:48:12;2.83;;;1.17;;
11735;SDS011;5924;51.398;7.088;2022-09-16T11:51:11;3.77;;;1.00;;
11735;SDS011;5924;51.398;7.088;2022-09-16T11:54:06;7.60;;;1.83;;
11735;SDS011;5924;51.398;7.088;2022-09-16T11:56:45;1.83;;;0.70;;
11735;SDS011;5924;51.398;7.088;2022-09-16T11:59:36;1.83;;;0.63;;
11735;SDS011;5924;51.398;7.088;2022-09-16T12:05:01;4.40;;;1.03;;
11735;SDS011;5924;51.398;7.088;2022-09-16T12:07:37;3.90;;;0.63;;
11735;SDS011;5924;51.398;7.088;2022-09-16T12:13:25;0.70;;;0.70;;
11735;SDS011;5924;51.398;7.088;2022-09-16T12:16:04;0.90;;;0.60;;
11735;SDS011;5924;51.398;7.088;2022-09-16T12:18:43;1.40;;;0.60;;
11735;SDS011;5924;51.398;7.088;2022-09-16T12:23:54;1.43;;;0.60;;
11735;SDS011;5924;51.398;7.088;2022-09-16T12:26:36;0.50;;;0.50;;
11735;SDS011;5924;51.398;7.088;2022-09-16T12:29:21;0.50;;;0.50;;
11735;SDS011;5924;51.398;7.088;2022-09-16T12:32:11;0.50;;;0.50;;
11735;SDS011;5924;51.398;7.088;2022-09-16T12:40:00;1.63;;;0.60;;
11735;SDS011;5924;51.398;7.088;2022-09-16T12:45:36;2.60;;;1.10;;
11735;SDS011;5924;51.398;7.088;2022-09-16T12:59:45;2.93;;;0.77;;
11735;SDS011;5924;51.398;7.088;2022-09-16T13:05:36;3.23;;;0.87;;
11735;SDS011;5924;51.398;7.088;2022-09-16T13:08:04;1.90;;;0.90;;
11735;SDS011;5924;51.398;7.088;2022-09-16T13:10:52;2.80;;;1.50;;
11735;SDS011;5924;51.398;7.088;2022-09-16T13:13:45;0.70;;;0.70;;
11735;SDS011;5924;51.398;7.088;2022-09-16T13:16:14;3.93;;;0.97;;
11735;SDS011;5924;51.398;7.088;2022-09-16T13:19:01;2.00;;;1.07;;
11735;SDS011;5924;51.398;7.088;2022-09-16T13:21:48;2.13;;;1.10;;
11735;SDS011;5924;51.398;7.088;2022-09-16T13:24:35;1.40;;;1.30;;
11735;SDS011;5924;51.398;7.088;2022-09-16T13:37:42;1.50;;;1.40;;
11735;SDS011;5924;51.398;7.088;2022-09-16T13:40:19;3.47;;;1.17;;
11735;SDS011;5924;51.398;7.088;2022-09-16T13:43:02;0.80;;;0.80;;
11735;SDS011;5924;51.398;7.088;2022-09-16T13:45:35;1.93;;;0.90;;
11735;SDS011;5924;51.398;7.088;2022-09-16T15:05:51;0.50;;;0.50;;
11735;SDS011;5924;51.398;7.088;2022-09-16T15:11:13;0.60;;;0.60;;
11735;SDS011;5924;51.398;7.088;2022-09-16T15:14:00;3.37;;;0.70;;
11735;SDS011;5924;51.398;7.088;2022-09-16T15:16:26;1.63;;;0.70;;
11735;SDS011;5924;51.398;7.088;2022-09-16T15:18:59;1.13;;;0.80;;
11735;SDS011;5924;51.398;7.088;2022-09-16T15:21:31;1.27;;;0.90;;
11735;SDS011;5924;51.398;7.088;2022-09-16T15:24:00;2.50;;;0.93;;
11735;SDS011;5924;51.398;7.088;2022-09-16T15:26:28;1.07;;;0.90;;
11735;SDS011;5924;51.398;7.088;2022-09-16T15:29:01;0.77;;;0.63;;
11735;SDS011;5924;51.398;7.088;2022-09-16T15:36:56;2.60;;;0.80;;
11735;SDS011;5924;51.398;7.088;2022-09-16T15:39:29;4.20;;;1.20;;
11735;SDS011;5924;51.398;7.088;2022-09-16T15:44:50;2.90;;;1.00;;
11735;SDS011;5924;51.398;7.088;2022-09-16T15:49:45;2.40;;;0.80;;
11735;SDS011;5924;51.398;7.088;2022-09-16T15:55:27;1.50;;;1.10;;
11735;SDS011;5924;51.398;7.088;2022-09-16T15:57:59;1.03;;;0.93;;
11735;SDS011;5924;51.398;7.088;2022-09-16T16:00:33;7.13;;;1.33;;
11735;SDS011;5924;51.398;7.088;2022-09-16T16:03:21;3.23;;;1.20;;
11735;SDS011;5924;51.398;7.088;2022-09-16T16:05:50;4.67;;;0.97;;
11735;SDS011;5924;51.398;7.088;2022-09-16T16:11:19;6.93;;;1.00;;
11735;SDS011;5924;51.398;7.088;2022-09-16T16:13:47;3.63;;;0.77;;
11735;SDS011;5924;51.398;7.088;2022-09-16T16:16:15;3.13;;;0.90;;
11735;SDS011;5924;51.398;7.088;2022-09-16T16:18:44;4.47;;;1.03;;
11735;SDS011;5924;51.398;7.088;2022-09-16T16:21:16;4.37;;;1.00;;
11735;SDS011;5924;51.398;7.088;2022-09-16T16:23:45;2.47;;;1.00;;
11735;SDS011;5924;51.398;7.088;2022-09-16T16:26:10;1.73;;;1.20;;
11735;SDS011;5924;51.398;7.088;2022-09-16T16:44:41;6.17;;;1.20;;
11735;SDS011;5924;51.398;7.088;2022-09-16T16:47:07;2.07;;;1.20;;
11735;SDS011;5924;51.398;7.088;2022-09-16T16:49:33;3.80;;;1.23;;
11735;SDS011;5924;51.398;7.088;2022-09-16T16:51:59;3.03;;;1.50;;
11735;SDS011;5924;51.398;7.088;2022-09-16T16:54:26;4.20;;;1.60;;
11735;SDS011;5924;51.398;7.088;2022-09-16T16:56:52;2.40;;;0.93;;
11735;SDS011;5924;51.398;7.088;2022-09-16T16:59:19;15.67;;;1.50;;
11735;SDS011;5924;51.398;7.088;2022-09-16T17:01:46;1.50;;;1.10;;
11735;SDS011;5924;51.398;7.088;2022-09-16T17:04:15;4.20;;;1.30;;
11735;SDS011;5924;51.398;7.088;2022-09-16T17:06:41;2.20;;;1.17;;
11735;SDS011;5924;51.398;7.088;2022-09-16T17:09:08;2.90;;;1.20;;
11735;SDS011;5924;51.398;7.088;2022-09-16T17:11:35;7.17;;;1.47;;
11735;SDS011;5924;51.398;7.088;2022-09-16T17:14:03;5.27;;;0.90;;
11735;SDS011;5924;51.398;7.088;2022-09-16T17:16:30;3.53;;;1.50;;
11735;SDS011;5924;51.398;7.088;2022-09-16T17:18:57;2.37;;;1.17;;
11735;SDS011;5924;51.398;7.088;2022-09-16T17:21:25;1.67;;;1.10;;
11735;SDS011;5924;51.398;7.088;2022-09-16T17:23:55;3.23;;;1.10;;
11735;SDS011;5924;51.398;7.088;2022-09-16T17:26:22;4.13;;;1.50;;
11735;SDS011;5924;51.398;7.088;2022-09-16T17:28:49;5.37;;;1.50;;
11735;SDS011;5924;51.398;7.088;2022-09-16T17:31:17;10.50;;;1.60;;
